Angwin, CA

12:11 AM PDT on September 02, 2014 (GMT -0700)
Napa County | Change Station
CLOSE
Current Station
Airport
Location: Napa County,
Elevation: 33 ft
Nearby Weather Stations

Elev 33 ft 38.21 °N, 122.28 °W | Updated 17 minutes ago

Clear
Clear
62 °F
Feels Like 62 °F
N
9
Wind Variable Wind from SSW

Today
High -- | Low -- °F
--% Chance of Precip.
Yesterday
High -- | Low -- °F
Precip. -- in
6:40 AM 7:38 PM
Waxing Crescent, 48% visible
Pressure 29.75 in
Visibility 10.0 miles
Clouds Clear
Dew Point 59 °F
Humidity 90%
Rainfall 0.00 in
Snow Depth Not available.
UV 0 out of 12
Pollen 9.40 out of 12
PM2.5 Moderate
Flu Activity Not available.
METAR KAPC 020654Z 21008KT 10SM CLR 17/15 A2978 RMK AO2 SLP075 T01670150

More Conditions Fewer Conditions

Pressure 29.75 in
Visibility 10.0 miles
Clouds Clear
Dew Point 59 °F
Humidity 90%
Rainfall 0.00 in
Snow Depth Not available.
UV 0 out of 12
Pollen 9.40 out of 12
PM2.5 Moderate
Flu Activity Not available.
METAR KAPC 020654Z 21008KT 10SM CLR 17/15 A2978 RMK AO2 SLP075 T01670150

More Conditions Fewer Conditions

10-Day Weather Forecast

Almanac

Astronomy

Sep. 02, 2014 Rise Set
Actual Time 6:40 AM PDT 7:38 PM PDT
Civil Twilight 6:12 AM PDT 8:05 PM PDT
Nautical Twilight 5:40 AM PDT 8:37 PM PDT
Astronomical Twilight 5:07 AM PDT 9:10 PM PDT
Moon 2:24 PM PDT No Moon Set
Length of Visible Light 13h 52m
Length of Day
12h 58m
Tomorrow will be 2m 25s shorter.
Waxing Crescent, 48% of the Moon is Illuminated
Today
Waxing Crescent
Sep 2
First Quarter
Sep 8
Full
Sep 15
Last Quarter
Sep 24
New

Community

WunderPhotos

Upload Photos

1,749,589 photos uploaded!

WunderBlogs® & News

Nearby

Air Quality

  Air Quality AQ Index Pollutant
Yesterday Good
PM2.5
Yesterday Good
OZONE
Current Moderate
PM2.5
Monday Good
PM2.5
Tuesday Good
PM2.5
Wednesday Good
PM2.5
Thursday Good
PM2.5
Friday Good
PM2.5

Snow Depth

Station Depth Elevation
CSS Lab 2 in 6900 ft
Rubicon #2 0 in 7500 ft
Echo Peak 0 in 7800 ft
Tahoe City Cross 0 in 6750 ft
Fallen Leaf 0 in 6300 ft

Earthquake Activity

City Distance Mag. Time & Date
Yountville, California 15 miles 2.6 1:15 PM PDT
2014-09-01
Gilroy, California 122 miles 3.5 9:10 AM PDT
2014-09-01
Green Valley, California 27 miles 2.5 6:37 AM PDT
2014-08-31
Napa, California 24 miles 3.2 1:56 AM PDT
2014-08-31
Minimum magnitude displayed is 2.5.

Coastal Water Temperatures

Place Temperature
No Stations Reporting

Nearby Weather Stations